Time;durP1;ratioP1;P1;durP2;ratioP2;P2;SDS_P1;SDS_P2;PMS_P1;PMS_P2;Temp;Humidity;BMP_temperature;BMP_pressure;BME280_temperature;BME280_humidity;BME280_pressure;Samples;Min_cycle;Max_cycle;Signal;HPM_P1;HPM_P2
2022/11/12 00:01:28;;;;;;;0.10;0.10;;;;;;;3.42;100.00;103101.97;5004378;28;20079;-68
2022/11/12 00:03:56;;;;;;;0.57;0.57;;;;;;;3.47;100.00;103108.09;5010177;28;20649;-68
2022/11/12 00:06:21;;;;;;;0.10;0.10;;;;;;;3.49;100.00;103111.63;5004594;28;20057;-68
2022/11/12 00:08:46;;;;;;;0.10;0.10;;;;;;;3.49;100.00;103105.41;5003649;28;20463;-68
2022/11/12 00:11:12;;;;;;;0.57;0.57;;;;;;;3.38;100.00;103113.50;5008285;28;20063;-68
2022/11/12 00:13:37;;;;;;;0.10;0.10;;;;;;;3.26;100.00;103107.44;4997903;28;20024;-68
2022/11/12 00:16:04;;;;;;;0.10;0.10;;;;;;;3.09;100.00;103115.59;5006122;28;20080;-68
2022/11/12 00:18:30;;;;;;;0.40;0.40;;;;;;;2.82;100.00;103095.47;5004268;28;20334;-68
2022/11/12 00:20:55;;;;;;;0.50;0.50;;;;;;;2.68;100.00;103093.84;5002192;28;20373;-68
2022/11/12 00:23:20;;;;;;;0.60;0.60;;;;;;;2.76;100.00;103117.63;5003766;28;20574;-68
2022/11/12 00:25:45;;;;;;;0.10;0.10;;;;;;;2.69;100.00;103114.16;5004411;28;20057;-68
2022/11/12 00:28:11;;;;;;;0.10;0.10;;;;;;;2.77;100.00;103116.75;5001530;28;20072;-68
2022/11/12 00:30:37;;;;;;;0.10;0.10;;;;;;;2.66;100.00;103085.00;5005078;28;20029;-68
2022/11/12 00:33:03;;;;;;;0.10;0.10;;;;;;;2.99;100.00;103120.09;5001982;28;20564;-68
2022/11/12 00:35:32;;;;;;;0.10;0.10;;;;;;;2.88;100.00;103081.28;5005573;28;20026;-68
2022/11/12 00:37:58;;;;;;;0.10;0.10;;;;;;;3.26;100.00;103118.06;5003311;28;20033;-68
2022/11/12 00:40:23;;;;;;;0.10;0.10;;;;;;;3.36;100.00;103113.53;5002124;28;20084;-68
2022/11/12 00:42:51;;;;;;;0.10;0.10;;;;;;;3.52;100.00;103123.97;5002870;28;20063;-69
2022/11/12 00:45:16;;;;;;;0.10;0.10;;;;;;;3.74;100.00;103106.88;5008829;28;20380;-68
2022/11/12 00:47:41;;;;;;;0.10;0.10;;;;;;;3.78;100.00;103082.91;5004392;28;20041;-68
2022/11/12 00:50:07;;;;;;;0.20;0.20;;;;;;;3.76;100.00;103072.31;5003020;28;20026;-68
2022/11/12 00:52:32;;;;;;;0.10;0.10;;;;;;;3.82;100.00;103079.34;5003622;28;20412;-68
2022/11/12 00:54:58;;;;;;;0.10;0.10;;;;;;;3.92;100.00;103107.56;4999129;28;20487;-68
2022/11/12 00:57:23;;;;;;;0.10;0.10;;;;;;;3.82;100.00;103101.50;5003217;28;20318;-68
2022/11/12 00:59:48;;;;;;;0.10;0.10;;;;;;;3.77;100.00;103095.34;5004570;28;20029;-68
2022/11/12 01:02:13;;;;;;;0.10;0.10;;;;;;;3.72;100.00;103102.50;4983787;28;20072;-68
2022/11/12 01:04:39;;;;;;;0.10;0.10;;;;;;;3.75;100.00;103110.44;5003027;28;20100;-68
2022/11/12 01:07:04;;;;;;;0.10;0.10;;;;;;;3.68;100.00;103119.38;5002776;28;20572;-68
2022/11/12 01:09:29;;;;;;;0.10;0.10;;;;;;;3.47;100.00;103128.44;5003238;28;20033;-68
2022/11/12 01:11:55;;;;;;;0.10;0.10;;;;;;;3.24;100.00;103100.38;5002989;28;20037;-68
2022/11/12 01:14:20;;;;;;;0.10;0.10;;;;;;;3.33;100.00;103123.28;4976722;28;20107;-68
2022/11/12 01:16:45;;;;;;;0.10;0.10;;;;;;;3.31;100.00;103120.66;5008944;28;20503;-68
2022/11/12 01:19:11;;;;;;;0.10;0.10;;;;;;;3.27;100.00;103122.50;5005459;28;20558;-68
2022/11/12 01:21:40;;;;;;;0.10;0.10;;;;;;;3.28;100.00;103120.69;5005249;28;20037;-68
2022/11/12 01:24:06;;;;;;;0.10;0.10;;;;;;;3.21;100.00;103117.22;5006880;28;20285;-68
2022/11/12 01:26:31;;;;;;;0.10;0.10;;;;;;;3.06;100.00;103112.94;4999481;28;20026;-68
2022/11/12 01:28:57;;;;;;;0.10;0.10;;;;;;;3.00;100.00;103113.91;5007041;28;20308;-68
2022/11/12 01:31:25;;;;;;;0.10;0.10;;;;;;;2.96;100.00;103112.16;5002180;28;20061;-68
2022/11/12 01:33:58;;;;;;;0.10;0.10;;;;;;;2.81;100.00;103096.38;5014105;28;20369;-68
2022/11/12 01:36:24;;;;;;;0.10;0.10;;;;;;;2.73;100.00;103100.88;5000144;28;20037;-68
2022/11/12 01:38:51;;;;;;;0.20;0.20;;;;;;;2.36;100.00;103081.69;5017491;28;20034;-68
2022/11/12 01:41:25;;;;;;;0.10;0.10;;;;;;;2.29;100.00;103103.81;5000853;28;20534;-68
2022/11/12 01:44:10;;;;;;;0.10;0.10;;;;;;;2.29;100.00;103093.22;4996986;28;20073;-68
2022/11/12 01:47:13;;;;;;;0.10;0.10;;;;;;;2.29;100.00;103093.22;5002559;28;20033;-68
2022/11/12 01:49:41;;;;;;;0.17;0.17;;;;;;;2.21;100.00;103095.06;5003291;28;20026;-68
2022/11/12 01:52:19;;;;;;;0.10;0.10;;;;;;;2.19;100.00;103091.53;5003352;28;20053;-68
2022/11/12 01:54:48;;;;;;;0.10;0.10;;;;;;;2.30;100.00;103092.34;5003703;28;20030;-68
2022/11/12 01:57:14;;;;;;;0.10;0.10;;;;;;;2.39;100.00;103097.59;5006288;28;20029;-69
2022/11/12 01:59:43;;;;;;;0.10;0.10;;;;;;;2.41;100.00;103097.56;5004087;28;20500;-68
2022/11/12 02:02:09;;;;;;;0.20;0.20;;;;;;;2.38;100.00;103090.53;5000930;28;20385;-68
2022/11/12 02:04:36;;;;;;;0.15;0.15;;;;;;;2.28;100.00;103074.69;5001290;28;20335;-68
2022/11/12 02:07:01;;;;;;;0.10;0.10;;;;;;;2.33;100.00;103091.47;4999736;28;20100;-68
2022/11/12 02:09:28;;;;;;;0.10;0.10;;;;;;;2.16;100.00;103088.91;5006366;28;21290;-68
2022/11/12 02:11:53;;;;;;;0.10;0.10;;;;;;;1.95;100.00;103093.44;5000652;28;20041;-68
2022/11/12 02:14:18;;;;;;;0.10;0.10;;;;;;;1.94;100.00;103095.22;5004469;28;20057;-68
2022/11/12 02:16:44;;;;;;;0.10;0.10;;;;;;;2.03;100.00;103088.97;4998177;28;20433;-68
2022/11/12 02:19:14;;;;;;;0.17;0.17;;;;;;;1.98;100.00;103076.66;4999347;28;20034;-68
2022/11/12 02:21:39;;;;;;;0.10;0.10;;;;;;;1.87;100.00;103082.00;4996376;28;20273;-68
2022/11/12 02:24:11;;;;;;;0.10;0.10;;;;;;;1.63;100.00;103084.75;5004153;28;20048;-68
2022/11/12 02:26:42;;;;;;;0.10;0.10;;;;;;;1.37;100.00;103054.84;5004921;28;20054;-68
2022/11/12 02:29:07;;;;;;;0.30;0.30;;;;;;;1.21;100.00;103052.25;5006324;28;20048;-68
2022/11/12 02:31:33;;;;;;;0.20;0.20;;;;;;;1.42;100.00;103098.06;5005147;28;20460;-68
2022/11/12 02:33:58;;;;;;;0.20;0.20;;;;;;;1.19;100.00;103068.13;5003644;28;20057;-68
2022/11/12 02:36:24;;;;;;;0.10;0.10;;;;;;;1.24;100.00;103080.47;5002038;28;20061;-68
2022/11/12 02:38:49;;;;;;;0.20;0.20;;;;;;;1.40;100.00;103090.16;5001590;28;20075;-68
2022/11/12 02:41:14;;;;;;;0.20;0.20;;;;;;;1.50;100.00;103094.50;5003813;28;20033;-68
2022/11/12 02:43:41;;;;;;;0.10;0.10;;;;;;;1.58;100.00;103090.97;5002695;28;20029;-68
2022/11/12 02:46:07;;;;;;;0.10;0.10;;;;;;;1.67;100.00;103083.00;5003769;28;20028;-68
2022/11/12 02:48:32;;;;;;;0.10;0.10;;;;;;;1.70;100.00;103079.44;5001258;28;20033;-68
2022/11/12 02:50:57;;;;;;;0.10;0.10;;;;;;;1.75;100.00;103067.06;5003413;28;20026;-68
2022/11/12 02:53:23;;;;;;;0.10;0.10;;;;;;;1.99;100.00;103091.66;5003085;28;20105;-68
2022/11/12 02:55:48;;;;;;;0.10;0.10;;;;;;;2.00;100.00;103091.63;5002240;28;20165;-68
2022/11/12 02:58:13;;;;;;;0.10;0.10;;;;;;;1.92;100.00;103089.03;5005751;28;20044;-68
2022/11/12 03:00:39;;;;;;;0.10;0.10;;;;;;;1.93;100.00;103079.34;5004241;28;20391;-68
2022/11/12 03:03:04;;;;;;;0.20;0.20;;;;;;;1.99;100.00;103078.41;4999432;28;20046;-68
2022/11/12 03:05:31;;;;;;;0.10;0.10;;;;;;;2.06;100.00;103070.41;5005328;28;20463;-68
2022/11/12 03:07:57;;;;;;;0.10;0.10;;;;;;;2.16;100.00;103067.72;5004447;28;20041;-68
2022/11/12 03:10:24;;;;;;;0.10;0.10;;;;;;;2.17;100.00;103070.34;5006893;28;20032;-68
2022/11/12 03:12:49;;;;;;;0.10;0.10;;;;;;;2.14;100.00;103074.78;5005248;28;20049;-68
2022/11/12 03:15:16;;;;;;;0.10;0.10;;;;;;;2.08;100.00;103067.75;5006996;28;20424;-68
2022/11/12 03:17:41;;;;;;;0.10;0.10;;;;;;;2.10;100.00;103081.88;5005247;28;20022;-68
2022/11/12 03:20:07;;;;;;;0.30;0.30;;;;;;;1.69;100.00;103061.78;5004835;28;20075;-68
2022/11/12 03:22:32;;;;;;;0.10;0.10;;;;;;;1.45;100.00;103055.72;5002778;28;20052;-68
2022/11/12 03:24:58;;;;;;;0.17;0.17;;;;;;;1.43;100.00;103076.91;5007170;28;20030;-68
2022/11/12 03:27:23;;;;;;;0.20;0.20;;;;;;;1.12;100.00;103081.38;5006866;28;20728;-68
2022/11/12 03:29:48;;;;;;;0.20;0.20;;;;;;;1.09;100.00;103076.09;5006038;28;20302;-68
2022/11/12 03:32:14;;;;;;;0.20;0.20;;;;;;;1.15;100.00;103066.41;5000641;28;20095;-68
2022/11/12 03:34:39;;;;;;;0.20;0.20;;;;;;;1.26;100.00;103078.69;5007546;28;20442;-68
2022/11/12 03:37:08;;;;;;;0.10;0.10;;;;;;;1.38;100.00;103067.19;5002130;28;20034;-68
2022/11/12 03:39:33;;;;;;;0.20;0.20;;;;;;;1.27;100.00;103057.53;5004956;28;20387;-68
2022/11/12 03:41:58;;;;;;;0.20;0.20;;;;;;;1.41;100.00;103070.72;5001713;28;20041;-68
2022/11/12 03:44:24;;;;;;;0.60;0.60;;;;;;;1.14;100.00;103034.63;5006493;28;20108;-68
2022/11/12 03:46:49;;;;;;;0.20;0.20;;;;;;;1.32;100.00;103076.03;5006204;28;20454;-68
2022/11/12 03:49:14;;;;;;;0.30;0.30;;;;;;;1.21;100.00;103070.78;5005107;28;20041;-68
2022/11/12 03:51:40;;;;;;;0.20;0.20;;;;;;;1.14;100.00;103062.00;5009087;28;20030;-68
2022/11/12 03:54:05;;;;;;;0.17;0.17;;;;;;;1.32;100.00;103073.41;5005200;28;20050;-68
2022/11/12 03:56:30;;;;;;;0.15;0.15;;;;;;;1.27;100.00;103054.00;5006027;28;20026;-68
2022/11/12 03:58:55;;;;;;;0.20;0.20;;;;;;;1.30;100.00;103067.22;5005379;28;20365;-68
2022/11/12 04:01:21;;;;;;;0.20;0.20;;;;;;;1.37;100.00;103079.56;5002707;28;20041;-68
2022/11/12 04:03:46;;;;;;;0.10;0.10;;;;;;;1.40;100.00;103081.31;4999676;28;20057;-68
2022/11/12 04:08:55;;;;;;;0.20;0.20;;;;;;;1.22;100.00;103075.19;4997912;28;20044;-68
2022/11/12 04:11:21;;;;;;;0.30;0.30;;;;;;;1.31;100.00;103087.53;5006292;28;20042;-69
2022/11/12 04:13:46;;;;;;;0.13;0.13;;;;;;;1.37;100.00;103076.03;4998265;28;20034;-68
2022/11/12 04:21:53;;;;;;;0.10;0.10;;;;;;;1.39;100.00;103059.25;5009648;28;20067;-68
2022/11/12 04:27:20;;;;;;;0.40;0.40;;;;;;;1.60;100.00;103071.53;5003871;28;20037;-68
2022/11/12 04:32:34;;;;;;;0.40;0.40;;;;;;;1.63;100.00;103068.84;5001490;28;20033;-68
2022/11/12 04:34:59;;;;;;;0.63;0.63;;;;;;;1.40;100.00;103045.16;5003973;28;20056;-68
2022/11/12 04:37:27;;;;;;;0.60;0.60;;;;;;;1.36;100.00;103059.28;4995631;28;20059;-68
2022/11/12 04:39:52;;;;;;;0.30;0.30;;;;;;;1.37;100.00;103066.31;4992550;28;20519;-68
2022/11/12 04:45:05;;;;;;;0.20;0.20;;;;;;;1.53;100.00;103060.97;4994790;28;20380;-68
2022/11/12 04:47:35;;;;;;;0.20;0.20;;;;;;;1.64;100.00;103062.69;4997632;28;20033;-68
2022/11/12 04:50:02;;;;;;;0.10;0.10;;;;;;;1.66;100.00;103062.69;4997650;28;20436;-68
2022/11/12 04:52:28;;;;;;;0.10;0.10;;;;;;;1.53;100.00;103038.03;4998192;28;20021;-68
2022/11/12 04:54:54;;;;;;;0.10;0.10;;;;;;;1.70;100.00;103058.25;4999153;28;20049;-67
2022/11/12 04:57:19;;;;;;;0.10;0.10;;;;;;;1.72;100.00;103049.38;5020879;28;20033;-68
2022/11/12 04:59:45;;;;;;;0.20;0.20;;;;;;;1.77;100.00;103055.56;5001947;28;20499;-68
2022/11/12 05:02:10;;;;;;;0.20;0.20;;;;;;;1.69;100.00;103059.13;4991440;28;20068;-68
2022/11/12 05:04:36;;;;;;;0.20;0.20;;;;;;;1.44;100.00;103038.06;4995927;28;20030;-68
2022/11/12 05:07:01;;;;;;;0.50;0.50;;;;;;;1.56;100.00;103042.41;4995881;28;20061;-68
2022/11/12 05:09:27;;;;;;;0.60;0.60;;;;;;;1.62;100.00;103042.41;4994274;28;20026;-68
2022/11/12 05:11:56;;;;;;;0.25;0.25;;;;;;;1.62;100.00;103051.22;4995648;28;20120;-68
2022/11/12 05:14:22;;;;;;;0.43;0.43;;;;;;;1.46;100.00;103037.16;4997621;28;20384;-68
2022/11/12 05:16:48;;;;;;;0.30;0.30;;;;;;;1.30;100.00;103024.88;4995720;28;20045;-68
2022/11/12 05:19:13;;;;;;;0.43;0.43;;;;;;;1.38;100.00;103036.31;4994036;28;20484;-68
2022/11/12 05:24:23;;;;;;;0.27;0.27;;;;;;;1.48;100.00;103029.22;4994953;28;20057;-68
2022/11/12 05:26:48;;;;;;;0.40;0.40;;;;;;;1.39;100.00;103008.06;4993831;28;20772;-68
2022/11/12 05:29:13;;;;;;;0.30;0.30;;;;;;;1.34;100.00;103003.66;4992648;28;20512;-68
2022/11/12 05:31:39;;;;;;;0.28;0.28;;;;;;;1.45;100.00;103026.59;5006055;28;20548;-68
2022/11/12 05:34:04;;;;;;;0.20;0.20;;;;;;;1.39;100.00;103019.56;4991240;28;20764;-68
2022/11/12 05:36:30;;;;;;;0.25;0.25;;;;;;;1.47;100.00;103030.97;4992114;28;20140;-68
2022/11/12 05:38:55;;;;;;;0.10;0.10;;;;;;;1.50;100.00;103030.09;4990160;28;20033;-68
2022/11/12 05:41:20;;;;;;;0.10;0.10;;;;;;;1.58;100.00;103025.66;4991132;28;20096;-68
2022/11/12 05:43:45;;;;;;;0.10;0.10;;;;;;;1.63;100.00;103022.97;4994639;28;20042;-68
2022/11/12 05:46:11;;;;;;;0.20;0.20;;;;;;;1.48;100.00;102994.81;4994045;28;20060;-67
2022/11/12 05:48:36;;;;;;;0.20;0.20;;;;;;;1.60;100.00;103031.78;4996228;28;20030;-68
2022/11/12 05:51:02;;;;;;;0.38;0.38;;;;;;;1.60;100.00;103020.34;4997071;28;20081;-68
2022/11/12 05:53:27;;;;;;;0.20;0.20;;;;;;;1.57;100.00;103025.66;4997544;28;20114;-68
2022/11/12 05:55:53;;;;;;;0.20;0.20;;;;;;;1.44;100.00;103023.06;4987839;28;20026;-68
2022/11/12 05:58:18;;;;;;;0.60;0.60;;;;;;;1.34;100.00;103023.97;5012008;28;20030;-67
2022/11/12 06:00:43;;;;;;;0.20;0.20;;;;;;;1.20;100.00;103024.03;4996216;28;20126;-67
2022/11/12 06:03:10;;;;;;;0.30;0.30;;;;;;;1.08;100.00;103030.25;4990992;28;20610;-68
2022/11/12 06:05:36;;;;;;;0.20;0.20;;;;;;;1.04;100.00;103028.47;4999215;28;20022;-68
2022/11/12 06:08:02;;;;;;;0.10;0.10;;;;;;;1.16;100.00;103028.47;4995142;28;20026;-68
2022/11/12 06:10:28;;;;;;;0.10;0.10;;;;;;;1.28;100.00;103027.53;4998719;28;20061;-68
2022/11/12 06:12:53;;;;;;;0.10;0.10;;;;;;;1.41;100.00;103022.19;4999872;28;20416;-68
2022/11/12 06:15:19;;;;;;;0.20;0.20;;;;;;;1.38;100.00;103012.50;5001929;28;20029;-67
2022/11/12 06:17:45;;;;;;;0.47;0.47;;;;;;;1.35;100.00;103021.31;4998112;28;20036;-68
2022/11/12 06:20:10;;;;;;;0.28;0.28;;;;;;;1.28;100.00;103034.59;4997353;28;20819;-67
2022/11/12 06:22:36;;;;;;;0.10;0.10;;;;;;;1.19;100.00;103031.06;4995180;28;20040;-67
2022/11/12 06:25:02;;;;;;;0.20;0.20;;;;;;;1.24;100.00;103041.66;4998255;28;20400;-68
2022/11/12 06:27:27;;;;;;;0.20;0.20;;;;;;;1.28;100.00;103037.22;4998651;28;20076;-68
2022/11/12 06:29:53;;;;;;;0.30;0.30;;;;;;;1.29;100.00;103053.13;4993375;28;20033;-68
2022/11/12 06:32:18;;;;;;;0.10;0.10;;;;;;;1.18;100.00;103039.03;4997021;28;20133;-68
2022/11/12 06:34:43;;;;;;;0.30;0.30;;;;;;;1.15;100.00;103053.16;4998606;28;20556;-68
2022/11/12 06:37:09;;;;;;;0.17;0.17;;;;;;;1.12;100.00;103042.59;4998129;28;20030;-68
2022/11/12 06:39:34;;;;;;;0.20;0.20;;;;;;;1.25;100.00;103056.66;4977048;28;20472;-68
2022/11/12 06:42:00;;;;;;;0.20;0.20;;;;;;;0.95;100.00;103005.59;4997837;28;20086;-68
2022/11/12 06:44:26;;;;;;;0.30;0.30;;;;;;;0.98;100.00;103020.56;5003392;28;20054;-68
2022/11/12 06:46:51;;;;;;;0.20;0.20;;;;;;;1.03;100.00;103018.78;4997983;28;20042;-68
2022/11/12 06:49:16;;;;;;;0.20;0.20;;;;;;;1.19;100.00;103054.88;4999897;28;20028;-68
2022/11/12 06:51:42;;;;;;;0.20;0.20;;;;;;;1.19;100.00;103048.72;5000723;28;20033;-68
2022/11/12 06:54:07;;;;;;;0.10;0.10;;;;;;;1.11;100.00;103048.75;5000887;28;20494;-68
2022/11/12 06:56:32;;;;;;;0.10;0.10;;;;;;;0.86;100.00;103019.72;5006533;28;20041;-68
2022/11/12 06:58:58;;;;;;;0.10;0.10;;;;;;;0.85;100.00;103031.19;5007021;28;20519;-68
2022/11/12 07:01:23;;;;;;;0.20;0.20;;;;;;;0.88;100.00;103049.69;5002948;28;20033;-69
2022/11/12 07:03:51;;;;;;;0.10;0.10;;;;;;;0.86;100.00;103058.50;5000100;28;20041;-68
2022/11/12 07:06:19;;;;;;;0.20;0.20;;;;;;;0.93;100.00;103068.19;5012517;28;20328;-68
2022/11/12 07:08:44;;;;;;;0.30;0.30;;;;;;;0.93;100.00;103044.38;4996595;28;20468;-68
2022/11/12 07:11:10;;;;;;;0.60;0.60;;;;;;;1.08;100.00;103062.00;4996271;28;20030;-68
2022/11/12 07:13:36;;;;;;;0.20;0.20;;;;;;;1.12;100.00;103054.91;4992813;28;20476;-68
2022/11/12 07:16:02;;;;;;;0.20;0.20;;;;;;;1.25;100.00;103064.59;4997457;28;20045;-68
2022/11/12 07:18:28;;;;;;;0.20;0.20;;;;;;;1.14;100.00;103038.16;4992900;28;20041;-68
2022/11/12 07:21:04;;;;;;;0.10;0.10;;;;;;;1.31;100.00;103043.41;4995434;28;20030;-68
2022/11/12 07:23:31;;;;;;;0.20;0.20;;;;;;;1.44;100.00;103053.94;5009463;28;20492;-68
2022/11/12 07:26:04;;;;;;;0.10;0.10;;;;;;;1.50;100.00;103073.31;4997359;28;20037;-68
2022/11/12 07:28:30;;;;;;;0.20;0.20;;;;;;;1.49;100.00;103058.31;4998399;28;20368;-68
2022/11/12 07:30:59;;;;;;;0.20;0.20;;;;;;;1.53;100.00;103055.66;4980212;28;20262;-68
2022/11/12 07:33:26;;;;;;;0.10;0.10;;;;;;;1.72;100.00;103059.13;4993149;28;20158;-68
2022/11/12 07:36:06;;;;;;;0.13;0.13;;;;;;;1.99;100.00;103071.31;4996387;28;20124;-68
2022/11/12 07:38:33;;;;;;;0.10;0.10;;;;;;;2.07;100.00;103080.13;4994763;28;20042;-68
2022/11/12 07:41:25;;;;;;;0.10;0.10;;;;;;;2.07;100.00;103081.91;4996999;28;20030;-68
2022/11/12 07:43:52;;;;;;;0.10;0.10;;;;;;;2.09;100.00;103078.34;4990034;28;20472;-68
2022/11/12 07:46:23;;;;;;;0.20;0.20;;;;;;;1.90;100.00;103043.13;4995303;28;20472;-68
2022/11/12 07:48:49;;;;;;;0.17;0.17;;;;;;;2.13;100.00;103086.28;4994823;28;20060;-68
2022/11/12 07:51:22;;;;;;;0.20;0.20;;;;;;;2.07;100.00;103050.97;4994939;28;20025;-68
2022/11/12 07:53:49;;;;;;;0.20;0.20;;;;;;;2.39;100.00;103073.72;4993600;28;20365;-68
2022/11/12 07:56:16;;;;;;;0.10;0.10;;;;;;;2.56;100.00;103075.34;4994491;28;20034;-68
2022/11/12 07:58:42;;;;;;;0.20;0.20;;;;;;;2.72;100.00;103083.19;4992077;28;20034;-68
2022/11/12 08:01:21;;;;;;;0.20;0.20;;;;;;;2.73;100.00;103053.13;4982114;28;20037;-68
2022/11/12 08:03:47;;;;;;;0.20;0.20;;;;;;;2.79;100.00;103050.38;5002274;28;20029;-69
2022/11/12 08:06:12;;;;;;;0.20;0.20;;;;;;;3.18;100.00;103092.50;4995159;28;20038;-68
2022/11/12 08:08:37;;;;;;;0.20;0.20;;;;;;;3.10;100.00;103050.09;4970942;28;20033;-68
2022/11/12 08:11:03;;;;;;;0.17;0.17;;;;;;;3.56;100.00;103078.78;4992405;28;20030;-68
2022/11/12 08:13:28;;;;;;;0.10;0.10;;;;;;;3.84;100.00;103082.84;4994627;28;20753;-69
2022/11/12 08:15:56;;;;;;;0.20;0.20;;;;;;;3.87;100.00;103054.44;4977395;28;20519;-69
2022/11/12 08:18:22;;;;;;;0.10;0.10;;;;;;;4.24;100.00;103084.06;4993415;28;20338;-69
2022/11/12 08:20:47;;;;;;;0.20;0.20;;;;;;;4.35;100.00;103085.66;4992040;28;20053;-69
2022/11/12 08:23:12;;;;;;;0.10;0.10;;;;;;;4.52;100.00;103088.94;4996021;28;20045;-68
2022/11/12 08:25:38;;;;;;;0.10;0.10;;;;;;;4.60;100.00;103081.72;4995841;28;20117;-69
2022/11/12 08:28:03;;;;;;;0.10;0.10;;;;;;;4.71;100.00;103078.88;4992968;28;20041;-68
2022/11/12 08:30:28;;;;;;;0.15;0.15;;;;;;;4.91;100.00;103092.72;4994839;28;20535;-68
2022/11/12 08:32:56;;;;;;;0.10;0.10;;;;;;;5.07;100.00;103103.97;4991020;28;20025;-68
2022/11/12 08:35:22;;;;;;;0.10;0.10;;;;;;;5.17;100.00;103094.03;4995842;28;20031;-68
2022/11/12 08:37:48;;;;;;;0.10;0.10;;;;;;;5.25;100.00;103096.53;4996145;28;20053;-68
2022/11/12 08:40:13;;;;;;;0.20;0.20;;;;;;;5.36;100.00;103094.56;4990546;28;20539;-68
2022/11/12 08:42:38;;;;;;;0.17;0.17;;;;;;;5.54;100.00;103098.66;4994277;28;20034;-68
2022/11/12 08:45:04;;;;;;;0.10;0.10;;;;;;;5.70;100.00;103095.66;4996410;28;20033;-69
2022/11/12 08:47:29;;;;;;;0.10;0.10;;;;;;;5.73;100.00;103092.94;4997657;28;20166;-69
2022/11/12 08:49:55;;;;;;;0.10;0.10;;;;;;;5.75;100.00;103082.22;4995685;28;20076;-69
2022/11/12 08:52:20;;;;;;;0.10;0.10;;;;;;;5.98;100.00;103101.25;4995018;28;20165;-68
2022/11/12 08:54:45;;;;;;;0.10;0.10;;;;;;;5.92;100.00;103093.41;4976159;28;20026;-67
2022/11/12 08:57:10;;;;;;;0.10;0.10;;;;;;;6.04;100.00;103104.72;4995775;28;20507;-69
2022/11/12 08:59:36;;;;;;;0.10;0.10;;;;;;;6.14;100.00;103103.63;4997608;28;20076;-68
2022/11/12 09:02:01;;;;;;;0.10;0.10;;;;;;;6.35;100.00;103093.34;4994279;28;20026;-68
2022/11/12 09:04:26;;;;;;;0.10;0.10;;;;;;;6.65;100.00;103096.19;4997213;28;20034;-68
2022/11/12 09:06:52;;;;;;;0.10;0.10;;;;;;;6.70;100.00;103102.31;4999755;28;20045;-68
2022/11/12 09:09:17;;;;;;;0.10;0.10;;;;;;;6.90;100.00;103110.69;4995473;28;20084;-70
2022/11/12 09:11:42;;;;;;;0.10;0.10;;;;;;;7.11;100.00;103110.16;4999139;28;20093;-70
2022/11/12 09:14:08;;;;;;;0.10;0.10;;;;;;;7.31;100.00;103105.13;4992096;28;20112;-69
2022/11/12 09:16:33;;;;;;;0.10;0.10;;;;;;;7.54;100.00;103086.72;4998140;28;20038;-69
2022/11/12 09:18:58;;;;;;;0.10;0.10;;;;;;;8.01;100.00;103107.59;4995496;28;20464;-69
2022/11/12 09:21:23;;;;;;;0.10;0.10;;;;;;;8.29;100.00;103112.97;4999144;28;20061;-69
2022/11/12 09:23:49;;;;;;;0.10;0.10;;;;;;;8.53;100.00;103116.66;4999540;28;20504;-69
2022/11/12 09:26:14;;;;;;;0.10;0.10;;;;;;;8.87;100.00;103112.00;4993107;28;20037;-70
2022/11/12 09:28:40;;;;;;;0.10;0.10;;;;;;;8.90;100.00;103114.56;4994985;28;20038;-70
2022/11/12 09:31:06;;;;;;;0.10;0.10;;;;;;;9.22;100.00;103114.38;4995760;28;20072;-69
2022/11/12 09:33:32;;;;;;;0.10;0.10;;;;;;;9.51;100.00;103117.81;4999378;28;20157;-71
2022/11/12 09:36:02;;;;;;;0.10;0.10;;;;;;;9.70;100.00;103099.19;4985679;28;20677;-70
2022/11/12 09:38:27;;;;;;;0.10;0.10;;;;;;;10.11;100.00;103115.53;5010965;28;20038;-70
2022/11/12 09:41:15;;;;;;;0.10;0.10;;;;;;;10.29;100.00;103107.66;4997870;28;20389;-70
2022/11/12 09:43:48;;;;;;;0.00;0.00;;;;;;;10.64;100.00;103108.91;4982024;28;20026;-70
2022/11/12 09:46:28;;;;;;;0.10;0.10;;;;;;;10.86;100.00;103105.31;5001242;28;20026;-70
2022/11/12 09:49:17;;;;;;;0.10;0.10;;;;;;;10.98;100.00;103117.38;4999916;28;20037;-70
2022/11/12 09:51:47;;;;;;;0.10;0.10;;;;;;;11.05;100.00;103108.09;5017357;28;20587;-71
2022/11/12 09:54:19;;;;;;;0.10;0.10;;;;;;;11.54;99.36;103112.22;4996546;28;20021;-71
2022/11/12 09:56:47;;;;;;;0.10;0.10;;;;;;;11.88;96.17;103088.25;5000663;28;20633;-71
2022/11/12 09:59:12;;;;;;;0.00;0.00;;;;;;;11.98;95.26;103111.09;5014664;28;20033;-70
2022/11/12 10:02:02;;;;;;;0.10;0.10;;;;;;;12.00;92.53;103102.03;5001758;28;20024;-71
2022/11/12 10:04:38;;;;;;;0.05;0.05;;;;;;;12.13;93.43;103096.94;4996703;28;20327;-70
2022/11/12 10:07:13;;;;;;;0.03;0.03;;;;;;;12.11;91.45;103071.91;5000314;28;20080;-70
2022/11/12 10:10:04;;;;;;;0.10;0.10;;;;;;;12.65;91.42;103094.41;4995991;28;20038;-71
2022/11/12 10:12:53;;;;;;;0.00;0.00;;;;;;;12.18;92.35;103068.91;5002906;28;20403;-70
2022/11/12 10:18:43;;;;;;;0.10;0.10;;;;;;;13.47;84.27;103082.09;4995431;28;20088;-70
2022/11/12 10:21:20;;;;;;;0.10;0.10;;;;;;;14.02;83.41;103061.06;4997600;28;20030;-70
2022/11/12 10:23:49;;;;;;;0.10;0.10;;;;;;;14.88;84.17;103084.00;4998508;28;20048;-70
2022/11/12 10:26:16;;;;;;;0.10;0.10;;;;;;;15.47;76.34;103089.41;5002268;28;20029;-70
2022/11/12 10:28:57;;;;;;;0.10;0.10;;;;;;;15.97;74.73;103081.72;5000142;28;20030;-70
2022/11/12 10:31:22;;;;;;;0.10;0.10;;;;;;;16.04;73.28;103083.06;5013052;28;20081;-70
2022/11/12 10:33:47;;;;;;;0.10;0.10;;;;;;;16.43;71.82;103075.09;5013053;28;20034;-70
2022/11/12 10:36:19;;;;;;;0.00;0.00;;;;;;;16.30;69.14;103047.94;5001484;28;20630;-70
2022/11/12 10:38:47;;;;;;;0.10;0.10;;;;;;;16.46;66.65;103072.19;4989025;28;20034;-70
2022/11/12 10:41:26;;;;;;;0.08;0.08;;;;;;;16.73;64.05;103065.84;4995499;28;20026;-70
2022/11/12 10:43:59;;;;;;;0.10;0.10;;;;;;;17.35;60.61;103060.69;5002043;28;20021;-70
2022/11/12 10:46:30;;;;;;;0.10;0.10;;;;;;;17.80;59.52;103055.59;5003998;28;20041;-70
2022/11/12 10:48:58;;;;;;;0.00;0.00;;;;;;;17.64;60.50;103039.53;5000014;28;20056;-70
2022/11/12 10:51:33;;;;;;;0.00;0.00;;;;;;;18.21;59.75;103064.38;4984954;28;20037;-71
2022/11/12 10:53:58;;;;;;;0.03;0.03;;;;;;;18.74;58.74;103049.50;5006949;28;20022;-70
2022/11/12 10:56:28;;;;;;;0.10;0.10;;;;;;;18.93;58.62;103054.38;5004674;28;20044;-70
2022/11/12 10:59:22;;;;;;;0.03;0.03;;;;;;;19.71;51.24;103040.03;5004352;28;20494;-71
2022/11/12 11:01:59;;;;;;;0.00;0.00;;;;;;;19.63;51.08;103027.91;5001077;28;20034;-71
2022/11/12 11:04:34;;;;;;;0.00;0.00;;;;;;;19.41;52.19;103038.84;4999927;28;20065;-70
2022/11/12 11:07:03;;;;;;;0.00;0.00;;;;;;;19.38;52.66;103030.91;5003972;28;20324;-70
2022/11/12 11:09:29;;;;;;;0.00;0.00;;;;;;;18.72;56.00;103024.25;5004992;28;20033;-70
2022/11/12 11:11:54;;;;;;;0.10;0.10;;;;;;;18.40;57.92;103033.09;4999964;28;20060;-70
2022/11/12 11:14:22;;;;;;;0.00;0.00;;;;;;;18.01;55.79;103038.69;4999396;28;20036;-70
2022/11/12 11:16:56;;;;;;;0.00;0.00;;;;;;;19.24;55.81;103032.03;5005744;28;20025;-70
2022/11/12 11:19:27;;;;;;;0.00;0.00;;;;;;;19.20;53.98;103001.47;5001953;28;20076;-70
2022/11/12 11:22:00;;;;;;;0.00;0.00;;;;;;;19.44;54.33;103014.94;5000665;28;20557;-70
2022/11/12 11:25:00;;;;;;;0.10;0.10;;;;;;;19.76;50.17;103013.28;4995283;28;20217;-73
2022/11/12 11:27:39;;;;;;;0.00;0.00;;;;;;;19.71;50.98;103000.03;5003878;28;20053;-70
2022/11/12 11:30:13;;;;;;;0.00;0.00;;;;;;;19.67;50.95;102997.69;4999952;28;20061;-70
2022/11/12 11:32:38;;;;;;;0.00;0.00;;;;;;;19.92;53.33;103010.19;5009810;28;20520;-70
2022/11/12 11:35:15;;;;;;;0.10;0.10;;;;;;;19.14;51.31;103015.56;4998872;28;20361;-70
2022/11/12 11:37:58;;;;;;;0.08;0.08;;;;;;;18.38;54.28;103016.03;5002088;28;20085;-70
2022/11/12 11:40:30;;;;;;;0.00;0.00;;;;;;;17.99;57.93;102998.03;5000149;28;20069;-70
2022/11/12 11:43:01;;;;;;;0.10;0.10;;;;;;;18.36;56.15;103009.81;4998772;28;20137;-70
2022/11/12 11:45:39;;;;;;;0.00;0.00;;;;;;;18.61;54.55;102988.88;4999212;28;20030;-70
2022/11/12 11:48:51;;;;;;;0.00;0.00;;;;;;;18.68;54.30;102999.16;5000203;28;20531;-71
2022/11/12 11:51:46;;;;;;;0.00;0.00;;;;;;;18.21;54.54;102982.81;4958420;28;20532;-70